sensor_id;sensor_type;location;lat;lon;timestamp;pressure;altitude;pressure_sealevel;temperature;humidity
48390;BME280;34643;47.964;7.982;2023-04-15T00:03:05;95741.16;;;18.06;54.79
48390;BME280;34643;47.964;7.982;2023-04-15T00:08:06;95746.38;;;18.06;54.54
48390;BME280;34643;47.964;7.982;2023-04-15T00:13:07;95739.53;;;18.05;54.67
48390;BME280;34643;47.964;7.982;2023-04-15T00:18:07;95738.69;;;18.04;54.78
48390;BME280;34643;47.964;7.982;2023-04-15T00:23:08;95733.47;;;18.04;55.11
48390;BME280;34643;47.964;7.982;2023-04-15T00:28:08;95736.22;;;18.03;54.83
48390;BME280;34643;47.964;7.982;2023-04-15T00:33:09;95735.41;;;18.02;55.17
48390;BME280;34643;47.964;7.982;2023-04-15T00:38:09;95735.41;;;18.02;55.17
48390;BME280;34643;47.964;7.982;2023-04-15T00:43:10;95732.78;;;18.02;55.46
48390;BME280;34643;47.964;7.982;2023-04-15T00:48:11;95728.56;;;18.01;55.51
48390;BME280;34643;47.964;7.982;2023-04-15T00:53:12;95733.47;;;18.04;55.37
48390;BME280;34643;47.964;7.982;2023-04-15T00:58:13;95735.81;;;18.08;55.25
48390;BME280;34643;47.964;7.982;2023-04-15T01:03:15;95729.47;;;18.10;55.46
48390;BME280;34643;47.964;7.982;2023-04-15T01:08:15;95724.94;;;18.12;55.60
48390;BME280;34643;47.964;7.982;2023-04-15T01:13:15;95724.94;;;18.12;55.68
48390;BME280;34643;47.964;7.982;2023-04-15T01:18:16;95726.72;;;18.12;55.59
48390;BME280;34643;47.964;7.982;2023-04-15T01:23:16;95717.91;;;18.13;55.79
48390;BME280;34643;47.964;7.982;2023-04-15T01:28:17;95710.09;;;18.13;55.91
48390;BME280;34643;47.964;7.982;2023-04-15T01:33:17;95712.69;;;18.13;55.97
48390;BME280;34643;47.964;7.982;2023-04-15T01:38:19;95714.31;;;18.14;56.08
48390;BME280;34643;47.964;7.982;2023-04-15T01:43:20;95714.50;;;18.12;56.10
48390;BME280;34643;47.964;7.982;2023-04-15T01:48:20;95720.66;;;18.11;56.21
48390;BME280;34643;47.964;7.982;2023-04-15T01:53:21;95711.19;;;18.10;56.15
48390;BME280;34643;47.964;7.982;2023-04-15T01:58:21;95711.19;;;18.10;56.37
48390;BME280;34643;47.964;7.982;2023-04-15T02:03:23;95701.72;;;18.09;56.51
48390;BME280;34643;47.964;7.982;2023-04-15T02:08:26;95712.03;;;18.11;56.59
48390;BME280;34643;47.964;7.982;2023-04-15T02:13:26;95706.13;;;18.09;56.51
48390;BME280;34643;47.964;7.982;2023-04-15T02:18:27;95706.13;;;18.09;56.59
48390;BME280;34643;47.964;7.982;2023-04-15T02:23:27;95705.41;;;18.07;56.49
48390;BME280;34643;47.964;7.982;2023-04-15T02:28:27;95697.75;;;18.05;56.79
48390;BME280;34643;47.964;7.982;2023-04-15T02:33:28;95708.22;;;18.05;56.87
48390;BME280;34643;47.964;7.982;2023-04-15T02:38:28;95704.59;;;18.06;56.74
48390;BME280;34643;47.964;7.982;2023-04-15T02:43:29;95706.53;;;18.04;56.76
48390;BME280;34643;47.964;7.982;2023-04-15T02:48:30;95709.97;;;18.04;56.68
48390;BME280;34643;47.964;7.982;2023-04-15T02:53:30;95706.53;;;18.04;56.95
48390;BME280;34643;47.964;7.982;2023-04-15T02:58:31;95709.00;;;18.05;56.69
48390;BME280;34643;47.964;7.982;2023-04-15T03:03:31;95702.53;;;18.10;56.97
48390;BME280;34643;47.964;7.982;2023-04-15T03:08:32;95696.88;;;18.14;56.98
48390;BME280;34643;47.964;7.982;2023-04-15T03:13:33;95690.69;;;18.15;57.26
48390;BME280;34643;47.964;7.982;2023-04-15T03:18:40;95696.75;;;18.16;56.90
48390;BME280;34643;47.964;7.982;2023-04-15T03:23:41;95691.53;;;18.16;57.01
48390;BME280;34643;47.964;7.982;2023-04-15T03:28:41;95688.72;;;18.17;57.04
48390;BME280;34643;47.964;7.982;2023-04-15T03:33:42;95680.91;;;18.17;57.02
48390;BME280;34643;47.964;7.982;2023-04-15T03:38:42;95683.50;;;18.17;57.14
48390;BME280;34643;47.964;7.982;2023-04-15T03:43:43;95674.06;;;18.16;57.28
48390;BME280;34643;47.964;7.982;2023-04-15T03:48:43;95675.84;;;18.16;57.18
48390;BME280;34643;47.964;7.982;2023-04-15T03:53:43;95678.47;;;18.16;57.23
48390;BME280;34643;47.964;7.982;2023-04-15T03:58:43;95680.38;;;18.14;57.39
48390;BME280;34643;47.964;7.982;2023-04-15T04:03:44;95677.94;;;18.12;57.24
48390;BME280;34643;47.964;7.982;2023-04-15T04:08:44;95676.28;;;18.11;57.23
48390;BME280;34643;47.964;7.982;2023-04-15T04:13:45;95684.25;;;18.10;57.12
48390;BME280;34643;47.964;7.982;2023-04-15T04:18:45;95675.59;;;18.09;57.40
48390;BME280;34643;47.964;7.982;2023-04-15T04:23:45;95682.63;;;18.09;57.23
48390;BME280;34643;47.964;7.982;2023-04-15T04:28:46;95683.72;;;18.06;57.51
48390;BME280;34643;47.964;7.982;2023-04-15T04:33:46;95680.28;;;18.05;57.45
48390;BME280;34643;47.964;7.982;2023-04-15T04:38:46;95694.31;;;18.04;57.59
48390;BME280;34643;47.964;7.982;2023-04-15T04:43:47;95696.91;;;18.04;57.53
48390;BME280;34643;47.964;7.982;2023-04-15T04:48:47;95694.44;;;18.03;57.54
48390;BME280;34643;47.964;7.982;2023-04-15T04:53:47;95705.88;;;18.02;57.72
48390;BME280;34643;47.964;7.982;2023-04-15T04:58:48;95706.00;;;18.00;57.76
48390;BME280;34643;47.964;7.982;2023-04-15T05:03:48;95709.56;;;17.99;57.71
48390;BME280;34643;47.964;7.982;2023-04-15T05:08:48;95711.38;;;17.99;57.52
48390;BME280;34643;47.964;7.982;2023-04-15T05:13:49;95713.16;;;17.98;57.51
48390;BME280;34643;47.964;7.982;2023-04-15T05:18:49;95711.50;;;17.97;57.88
48390;BME280;34643;47.964;7.982;2023-04-15T05:23:49;95718.13;;;18.01;57.61
48390;BME280;34643;47.964;7.982;2023-04-15T05:28:50;95715.06;;;18.06;57.73
48390;BME280;34643;47.964;7.982;2023-04-15T05:33:50;95720.53;;;18.13;57.88
48390;BME280;34643;47.964;7.982;2023-04-15T05:38:50;95716.94;;;18.14;57.56
48390;BME280;34643;47.964;7.982;2023-04-15T05:43:51;95719.72;;;18.12;57.80
48390;BME280;34643;47.964;7.982;2023-04-15T05:48:51;95717.09;;;18.12;57.87
48390;BME280;34643;47.964;7.982;2023-04-15T05:53:51;95724.09;;;18.12;57.69
48390;BME280;34643;47.964;7.982;2023-04-15T05:58:52;95721.47;;;18.12;57.90
48390;BME280;34643;47.964;7.982;2023-04-15T06:03:52;95723.13;;;18.13;57.76
48390;BME280;34643;47.964;7.982;2023-04-15T06:08:52;95717.38;;;18.09;57.68
48390;BME280;34643;47.964;7.982;2023-04-15T06:13:54;95715.59;;;18.10;57.94
48390;BME280;34643;47.964;7.982;2023-04-15T06:18:55;95715.59;;;18.10;57.50
48390;BME280;34643;47.964;7.982;2023-04-15T06:23:56;95711.19;;;18.10;57.83
48390;BME280;34643;47.964;7.982;2023-04-15T06:28:57;95716.25;;;18.12;57.96
48390;BME280;34643;47.964;7.982;2023-04-15T06:33:57;95707.75;;;18.10;57.80
48390;BME280;34643;47.964;7.982;2023-04-15T06:38:58;95714.25;;;18.05;57.80
48390;BME280;34643;47.964;7.982;2023-04-15T06:43:58;95719.59;;;18.04;57.99
48390;BME280;34643;47.964;7.982;2023-04-15T06:48:58;95706.81;;;18.01;57.98
48390;BME280;34643;47.964;7.982;2023-04-15T06:53:59;95716.47;;;18.00;57.84
48390;BME280;34643;47.964;7.982;2023-04-15T06:58:59;95714.00;;;17.99;57.79
48390;BME280;34643;47.964;7.982;2023-04-15T07:04:00;95711.50;;;17.97;57.81
48390;BME280;34643;47.964;7.982;2023-04-15T07:09:00;95706.44;;;17.96;57.58
48390;BME280;34643;47.964;7.982;2023-04-15T07:14:02;95707.56;;;17.93;57.79
48390;BME280;34643;47.964;7.982;2023-04-15T07:19:02;95710.16;;;17.93;57.64
48390;BME280;34643;47.964;7.982;2023-04-15T07:24:03;95700.81;;;17.91;57.62
48390;BME280;34643;47.964;7.982;2023-04-15T07:29:03;95705.50;;;17.87;57.69
48390;BME280;34643;47.964;7.982;2023-04-15T07:34:05;95703.16;;;17.84;57.54
48390;BME280;34643;47.964;7.982;2023-04-15T07:39:06;95701.22;;;17.96;57.44
48390;BME280;34643;47.964;7.982;2023-04-15T07:44:06;95714.00;;;17.99;57.40
48390;BME280;34643;47.964;7.982;2023-04-15T07:49:07;95711.50;;;17.97;57.36
48390;BME280;34643;47.964;7.982;2023-04-15T07:54:07;95718.66;;;17.95;57.47
48390;BME280;34643;47.964;7.982;2023-04-15T07:59:08;95709.63;;;17.90;57.33
48390;BME280;34643;47.964;7.982;2023-04-15T08:04:09;95707.16;;;17.88;57.11
48390;BME280;34643;47.964;7.982;2023-04-15T08:09:09;95714.31;;;17.86;57.16
48390;BME280;34643;47.964;7.982;2023-04-15T08:14:10;95715.53;;;17.82;57.13
48390;BME280;34643;47.964;7.982;2023-04-15T08:19:10;95728.59;;;17.82;57.23
48390;BME280;34643;47.964;7.982;2023-04-15T08:24:11;95730.50;;;17.80;57.13
48390;BME280;34643;47.964;7.982;2023-04-15T08:29:12;95735.03;;;17.78;56.95
48390;BME280;34643;47.964;7.982;2023-04-15T08:34:12;95731.75;;;17.76;57.07
48390;BME280;34643;47.964;7.982;2023-04-15T08:39:12;95735.19;;;17.76;57.00
48390;BME280;34643;47.964;7.982;2023-04-15T08:44:13;95739.72;;;17.74;56.80
48390;BME280;34643;47.964;7.982;2023-04-15T08:49:13;95739.03;;;17.72;56.82
48390;BME280;34643;47.964;7.982;2023-04-15T08:54:14;95747.41;;;17.76;56.99
48390;BME280;34643;47.964;7.982;2023-04-15T08:59:15;95746.59;;;17.75;56.92
48390;BME280;34643;47.964;7.982;2023-04-15T09:04:20;95750.69;;;17.78;56.77
48390;BME280;34643;47.964;7.982;2023-04-15T09:09:20;95754.69;;;17.82;56.69
48390;BME280;34643;47.964;7.982;2023-04-15T09:14:21;95755.50;;;17.82;56.64
48390;BME280;34643;47.964;7.982;2023-04-15T09:19:22;95760.59;;;17.84;56.44
48390;BME280;34643;47.964;7.982;2023-04-15T09:24:23;95766.63;;;17.84;56.35
48390;BME280;34643;47.964;7.982;2023-04-15T09:29:23;95772.66;;;17.85;56.35
48390;BME280;34643;47.964;7.982;2023-04-15T09:34:34;95771.03;;;17.84;56.30
48390;BME280;34643;47.964;7.982;2023-04-15T09:39:44;95777.88;;;17.85;56.25
48390;BME280;34643;47.964;7.982;2023-04-15T09:44:44;95787.66;;;17.83;56.21
48390;BME280;34643;47.964;7.982;2023-04-15T09:49:54;95792.88;;;17.83;56.30
48390;BME280;34643;47.964;7.982;2023-04-15T09:54:58;95785.03;;;17.83;56.59
48390;BME280;34643;47.964;7.982;2023-04-15T09:59:59;95791.25;;;17.82;56.27
48390;BME280;34643;47.964;7.982;2023-04-15T10:05:00;95794.81;;;17.81;56.52
48390;BME280;34643;47.964;7.982;2023-04-15T10:10:00;95795.63;;;17.81;56.50
48390;BME280;34643;47.964;7.982;2023-04-15T10:15:03;95802.63;;;17.81;56.29
48390;BME280;34643;47.964;7.982;2023-04-15T10:20:04;95793.13;;;17.80;56.20
48390;BME280;34643;47.964;7.982;2023-04-15T10:25:05;95798.38;;;17.80;56.28
48390;BME280;34643;47.964;7.982;2023-04-15T10:30:06;95800.97;;;17.80;56.45
48390;BME280;34643;47.964;7.982;2023-04-15T10:35:08;95814.03;;;17.80;56.51
48390;BME280;34643;47.964;7.982;2023-04-15T10:45:30;95815.00;;;17.79;56.38
48390;BME280;34643;47.964;7.982;2023-04-15T10:50:31;95817.63;;;17.79;56.18
48390;BME280;34643;47.964;7.982;2023-04-15T10:55:32;95822.97;;;17.77;56.27
48390;BME280;34643;47.964;7.982;2023-04-15T11:00:33;95830.00;;;17.77;56.18
48390;BME280;34643;47.964;7.982;2023-04-15T11:05:49;95834.34;;;17.76;56.25
48390;BME280;34643;47.964;7.982;2023-04-15T11:10:50;95833.53;;;17.76;56.21
48390;BME280;34643;47.964;7.982;2023-04-15T11:15:54;95841.50;;;17.74;56.41
48390;BME280;34643;47.964;7.982;2023-04-15T11:21:01;95842.50;;;17.73;56.60
48390;BME280;34643;47.964;7.982;2023-04-15T11:26:03;95847.84;;;17.72;56.09
48390;BME280;34643;47.964;7.982;2023-04-15T11:31:12;95855.69;;;17.72;56.20
48390;BME280;34643;47.964;7.982;2023-04-15T11:36:12;95868.84;;;17.70;56.25
48390;BME280;34643;47.964;7.982;2023-04-15T11:41:13;95875.88;;;17.70;56.31
48390;BME280;34643;47.964;7.982;2023-04-15T11:46:13;95885.47;;;17.69;56.25
48390;BME280;34643;47.964;7.982;2023-04-15T11:51:14;95888.22;;;17.67;56.28
48390;BME280;34643;47.964;7.982;2023-04-15T11:56:18;95896.88;;;17.68;56.09
48390;BME280;34643;47.964;7.982;2023-04-15T12:01:20;95905.53;;;17.68;56.33
48390;BME280;34643;47.964;7.982;2023-04-15T12:06:32;95916.78;;;17.69;55.93
48390;BME280;34643;47.964;7.982;2023-04-15T12:16:45;95921.19;;;17.68;56.08
48390;BME280;34643;47.964;7.982;2023-04-15T12:21:46;95920.25;;;17.70;56.19
48390;BME280;34643;47.964;7.982;2023-04-15T12:26:48;95937.66;;;17.69;56.16
48390;BME280;34643;47.964;7.982;2023-04-15T12:31:53;95937.66;;;17.69;56.15
48390;BME280;34643;47.964;7.982;2023-04-15T12:36:54;95941.25;;;17.68;55.93
48390;BME280;34643;47.964;7.982;2023-04-15T12:41:54;95944.69;;;17.68;56.04
48390;BME280;34643;47.964;7.982;2023-04-15T12:46:55;95949.22;;;17.66;56.20
48390;BME280;34643;47.964;7.982;2023-04-15T12:51:57;95955.25;;;17.67;55.83
48390;BME280;34643;47.964;7.982;2023-04-15T12:56:59;95968.44;;;17.65;55.80
48390;BME280;34643;47.964;7.982;2023-04-15T13:01:59;95972.00;;;17.64;56.20
48390;BME280;34643;47.964;7.982;2023-04-15T13:07:01;95975.56;;;17.63;55.96
48390;BME280;34643;47.964;7.982;2023-04-15T13:12:02;95989.59;;;17.62;56.00
48390;BME280;34643;47.964;7.982;2023-04-15T13:17:04;95993.97;;;17.62;56.11
48390;BME280;34643;47.964;7.982;2023-04-15T13:22:09;95993.16;;;17.61;55.77
48390;BME280;34643;47.964;7.982;2023-04-15T13:27:09;95999.47;;;17.59;55.90
48390;BME280;34643;47.964;7.982;2023-04-15T13:32:10;96009.75;;;17.60;55.83
48390;BME280;34643;47.964;7.982;2023-04-15T13:37:10;96004.69;;;17.59;55.82
48390;BME280;34643;47.964;7.982;2023-04-15T13:42:10;96010.84;;;17.58;55.90
48390;BME280;34643;47.964;7.982;2023-04-15T13:47:10;96011.81;;;17.57;56.07
48390;BME280;34643;47.964;7.982;2023-04-15T13:52:12;96017.03;;;17.57;55.79
48390;BME280;34643;47.964;7.982;2023-04-15T14:02:39;96027.47;;;17.57;55.71
48390;BME280;34643;47.964;7.982;2023-04-15T14:07:40;96021.44;;;17.56;55.74
48390;BME280;34643;47.964;7.982;2023-04-15T14:12:41;96023.09;;;17.57;55.92
48390;BME280;34643;47.964;7.982;2023-04-15T14:17:41;96037.78;;;17.58;55.70
48390;BME280;34643;47.964;7.982;2023-04-15T14:22:41;96041.06;;;17.60;55.79
48390;BME280;34643;47.964;7.982;2023-04-15T14:27:42;96045.47;;;17.60;55.70
48390;BME280;34643;47.964;7.982;2023-04-15T14:32:42;96050.56;;;17.61;55.95
48390;BME280;34643;47.964;7.982;2023-04-15T14:37:42;96056.59;;;17.62;55.90
48390;BME280;34643;47.964;7.982;2023-04-15T14:42:42;96068.69;;;17.63;55.98
48390;BME280;34643;47.964;7.982;2023-04-15T14:47:43;96072.56;;;17.68;56.08
48390;BME280;34643;47.964;7.982;2023-04-15T14:52:43;96072.00;;;17.65;56.04
48390;BME280;34643;47.964;7.982;2023-04-15T14:57:44;96078.16;;;17.64;56.08
48390;BME280;34643;47.964;7.982;2023-04-15T15:02:44;96080.78;;;17.64;56.06
48390;BME280;34643;47.964;7.982;2023-04-15T15:07:46;96081.75;;;17.63;56.15
48390;BME280;34643;47.964;7.982;2023-04-15T15:12:46;96092.19;;;17.63;56.05
48390;BME280;34643;47.964;7.982;2023-04-15T15:22:59;96093.97;;;17.62;56.02
48390;BME280;34643;47.964;7.982;2023-04-15T15:28:00;96093.13;;;17.62;56.09
48390;BME280;34643;47.964;7.982;2023-04-15T15:33:00;96111.53;;;17.60;55.91
48390;BME280;34643;47.964;7.982;2023-04-15T15:38:00;96116.75;;;17.60;55.89
48390;BME280;34643;47.964;7.982;2023-04-15T15:43:01;96128.16;;;17.59;56.04
48390;BME280;34643;47.964;7.982;2023-04-15T15:48:01;96131.59;;;17.60;56.09
48390;BME280;34643;47.964;7.982;2023-04-15T15:53:02;96144.75;;;17.58;56.05
48390;BME280;34643;47.964;7.982;2023-04-15T15:58:02;96143.13;;;17.57;56.00
48390;BME280;34643;47.964;7.982;2023-04-15T16:03:02;96157.00;;;17.58;56.08
48390;BME280;34643;47.964;7.982;2023-04-15T16:08:03;96160.69;;;17.55;55.83
48390;BME280;34643;47.964;7.982;2023-04-15T16:13:03;96160.69;;;17.55;56.00
48390;BME280;34643;47.964;7.982;2023-04-15T16:18:04;96161.63;;;17.54;55.92
48390;BME280;34643;47.964;7.982;2023-04-15T16:28:29;96184.31;;;17.54;55.88
48390;BME280;34643;47.964;7.982;2023-04-15T16:33:29;96182.63;;;17.53;56.01
48390;BME280;34643;47.964;7.982;2023-04-15T16:38:29;96186.06;;;17.53;56.06
48390;BME280;34643;47.964;7.982;2023-04-15T16:43:30;96186.91;;;17.54;56.04
48390;BME280;34643;47.964;7.982;2023-04-15T16:48:30;96197.22;;;17.55;55.97
48390;BME280;34643;47.964;7.982;2023-04-15T16:53:30;96220.56;;;17.57;55.96
48390;BME280;34643;47.964;7.982;2023-04-15T16:58:30;96218.09;;;17.55;55.70
48390;BME280;34643;47.964;7.982;2023-04-15T17:03:31;96234.47;;;17.57;55.66
48390;BME280;34643;47.964;7.982;2023-04-15T17:08:31;96237.06;;;17.57;55.89
48390;BME280;34643;47.964;7.982;2023-04-15T17:13:32;96236.38;;;17.55;55.83
48390;BME280;34643;47.964;7.982;2023-04-15T17:18:32;96249.41;;;17.55;55.62
48390;BME280;34643;47.964;7.982;2023-04-15T17:23:33;96260.69;;;17.56;55.74
48390;BME280;34643;47.964;7.982;2023-04-15T17:28:33;96275.50;;;17.55;55.66
48390;BME280;34643;47.964;7.982;2023-04-15T17:33:33;96277.28;;;17.55;55.68
48390;BME280;34643;47.964;7.982;2023-04-15T17:38:34;96279.06;;;17.54;55.81
48390;BME280;34643;47.964;7.982;2023-04-15T17:43:34;96292.09;;;17.54;55.64
48390;BME280;34643;47.964;7.982;2023-04-15T17:48:35;96294.84;;;17.53;55.85
48390;BME280;34643;47.964;7.982;2023-04-15T17:53:35;96306.09;;;17.53;55.58
48390;BME280;34643;47.964;7.982;2023-04-15T17:58:35;96312.28;;;17.52;55.75
48390;BME280;34643;47.964;7.982;2023-04-15T18:03:38;96328.75;;;17.53;55.85
48390;BME280;34643;47.964;7.982;2023-04-15T18:08:38;96339.31;;;17.51;55.79
48390;BME280;34643;47.964;7.982;2023-04-15T18:13:38;96347.16;;;17.51;55.71
48390;BME280;34643;47.964;7.982;2023-04-15T18:18:39;96356.88;;;17.49;55.76
48390;BME280;34643;47.964;7.982;2023-04-15T18:23:39;96359.50;;;17.49;55.57
48390;BME280;34643;47.964;7.982;2023-04-15T18:28:39;96369.94;;;17.49;55.75
48390;BME280;34643;47.964;7.982;2023-04-15T18:33:40;96371.72;;;17.48;55.76
48390;BME280;34643;47.964;7.982;2023-04-15T18:38:40;96386.69;;;17.46;55.82
48390;BME280;34643;47.964;7.982;2023-04-15T18:43:40;96396.16;;;17.47;55.76
48390;BME280;34643;47.964;7.982;2023-04-15T18:48:41;96409.19;;;17.47;55.72
48390;BME280;34643;47.964;7.982;2023-04-15T18:53:41;96417.03;;;17.47;55.72
48390;BME280;34643;47.964;7.982;2023-04-15T18:58:41;96418.81;;;17.47;55.63
48390;BME280;34643;47.964;7.982;2023-04-15T19:03:42;96428.28;;;17.48;55.54
48390;BME280;34643;47.964;7.982;2023-04-15T19:08:42;96440.50;;;17.47;55.62
48390;BME280;34643;47.964;7.982;2023-04-15T19:13:42;96448.34;;;17.47;55.62
48390;BME280;34643;47.964;7.982;2023-04-15T19:18:43;96459.59;;;17.48;55.62
48390;BME280;34643;47.964;7.982;2023-04-15T19:23:43;96462.19;;;17.48;55.69
48390;BME280;34643;47.964;7.982;2023-04-15T19:28:43;96471.00;;;17.47;55.51
48390;BME280;34643;47.964;7.982;2023-04-15T19:33:44;96482.25;;;17.47;55.69
48390;BME280;34643;47.964;7.982;2023-04-15T19:38:44;96479.66;;;17.47;55.49
48390;BME280;34643;47.964;7.982;2023-04-15T19:43:45;96493.50;;;17.48;55.62
48390;BME280;34643;47.964;7.982;2023-04-15T19:48:45;96503.94;;;17.48;55.53
48390;BME280;34643;47.964;7.982;2023-04-15T19:53:45;96511.78;;;17.48;55.58
48390;BME280;34643;47.964;7.982;2023-04-15T19:58:48;96523.88;;;17.49;55.58
48390;BME280;34643;47.964;7.982;2023-04-15T20:03:52;96534.44;;;17.47;55.53
48390;BME280;34643;47.964;7.982;2023-04-15T20:08:53;96557.91;;;17.47;55.52
48390;BME280;34643;47.964;7.982;2023-04-15T20:13:56;96557.09;;;17.47;55.38
48390;BME280;34643;47.964;7.982;2023-04-15T20:18:56;96557.09;;;17.47;55.57
48390;BME280;34643;47.964;7.982;2023-04-15T20:24:02;96575.38;;;17.47;55.50
48390;BME280;34643;47.964;7.982;2023-04-15T20:29:03;96587.72;;;17.45;55.41
48390;BME280;34643;47.964;7.982;2023-04-15T20:34:03;96585.81;;;17.47;55.53
48390;BME280;34643;47.964;7.982;2023-04-15T20:39:03;96591.97;;;17.46;55.59
48390;BME280;34643;47.964;7.982;2023-04-15T20:44:04;96598.97;;;17.45;55.59
48390;BME280;34643;47.964;7.982;2023-04-15T20:49:04;96594.69;;;17.44;55.41
48390;BME280;34643;47.964;7.982;2023-04-15T20:54:04;96599.09;;;17.44;55.57
48390;BME280;34643;47.964;7.982;2023-04-15T20:59:05;96604.28;;;17.44;55.57
48390;BME280;34643;47.964;7.982;2023-04-15T21:04:05;96613.09;;;17.43;55.39
48390;BME280;34643;47.964;7.982;2023-04-15T21:09:06;96613.91;;;17.43;55.35
48390;BME280;34643;47.964;7.982;2023-04-15T21:14:06;96608.81;;;17.42;55.54
48390;BME280;34643;47.964;7.982;2023-04-15T21:19:08;96623.66;;;17.41;55.35
48390;BME280;34643;47.964;7.982;2023-04-15T21:24:08;96629.69;;;17.42;55.41
48390;BME280;34643;47.964;7.982;2023-04-15T21:29:08;96637.50;;;17.42;55.24
48390;BME280;34643;47.964;7.982;2023-04-15T21:34:09;96647.00;;;17.43;55.41
48390;BME280;34643;47.964;7.982;2023-04-15T21:39:09;96651.38;;;17.42;55.23
48390;BME280;34643;47.964;7.982;2023-04-15T21:44:09;96649.72;;;17.41;55.33
48390;BME280;34643;47.964;7.982;2023-04-15T21:49:10;96657.44;;;17.43;55.25
48390;BME280;34643;47.964;7.982;2023-04-15T21:54:10;96667.88;;;17.43;55.32
48390;BME280;34643;47.964;7.982;2023-04-15T21:59:10;96667.03;;;17.42;55.17
48390;BME280;34643;47.964;7.982;2023-04-15T22:04:11;96678.44;;;17.41;55.33
48390;BME280;34643;47.964;7.982;2023-04-15T22:09:11;96686.25;;;17.41;55.21
48390;BME280;34643;47.964;7.982;2023-04-15T22:14:12;96688.88;;;17.41;55.24
48390;BME280;34643;47.964;7.982;2023-04-15T22:19:12;96693.22;;;17.41;55.20
48390;BME280;34643;47.964;7.982;2023-04-15T22:24:13;96696.81;;;17.40;55.36
48390;BME280;34643;47.964;7.982;2023-04-15T22:29:13;96689.81;;;17.40;55.28
48390;BME280;34643;47.964;7.982;2023-04-15T22:34:14;96693.22;;;17.41;55.15
48390;BME280;34643;47.964;7.982;2023-04-15T22:39:19;96702.03;;;17.40;55.28
48390;BME280;34643;47.964;7.982;2023-04-15T22:44:20;96704.63;;;17.40;55.37
48390;BME280;34643;47.964;7.982;2023-04-15T22:49:20;96714.09;;;17.41;55.11
48390;BME280;34643;47.964;7.982;2023-04-15T22:54:20;96708.88;;;17.41;55.27
48390;BME280;34643;47.964;7.982;2023-04-15T22:59:21;96715.91;;;17.40;55.06
48390;BME280;34643;47.964;7.982;2023-04-15T23:04:21;96714.09;;;17.41;55.24
48390;BME280;34643;47.964;7.982;2023-04-15T23:09:23;96715.91;;;17.40;55.26
48390;BME280;34643;47.964;7.982;2023-04-15T23:14:23;96723.72;;;17.40;55.32
48390;BME280;34643;47.964;7.982;2023-04-15T23:19:25;96721.13;;;17.40;55.13
48390;BME280;34643;47.964;7.982;2023-04-15T23:24:25;96725.50;;;17.40;55.30
48390;BME280;34643;47.964;7.982;2023-04-15T23:29:25;96727.16;;;17.41;54.98
48390;BME280;34643;47.964;7.982;2023-04-15T23:34:25;96733.34;;;17.40;55.17
48390;BME280;34643;47.964;7.982;2023-04-15T23:39:26;96732.50;;;17.39;55.06
48390;BME280;34643;47.964;7.982;2023-04-15T23:44:26;96735.13;;;17.39;55.05
48390;BME280;34643;47.964;7.982;2023-04-15T23:49:27;96736.06;;;17.38;55.07
48390;BME280;34643;47.964;7.982;2023-04-15T23:54:27;96727.41;;;17.38;55.14
48390;BME280;34643;47.964;7.982;2023-04-15T23:59:27;96726.56;;;17.37;55.10
